sensor_id;sensor_type;location;lat;lon;timestamp;temperature;humidity
30983;DHT22;17660;52.578;13.288;2023-05-07T00:00:18;11.20;99.90
30983;DHT22;17660;52.578;13.288;2023-05-07T00:02:45;11.10;99.90
30983;DHT22;17660;52.578;13.288;2023-05-07T00:05:12;11.20;99.90
30983;DHT22;17660;52.578;13.288;2023-05-07T00:07:40;11.20;99.90
30983;DHT22;17660;52.578;13.288;2023-05-07T00:10:07;11.20;99.90
30983;DHT22;17660;52.578;13.288;2023-05-07T00:12:34;11.20;99.90
30983;DHT22;17660;52.578;13.288;2023-05-07T00:15:02;11.10;99.90
30983;DHT22;17660;52.578;13.288;2023-05-07T00:17:29;11.20;99.90
30983;DHT22;17660;52.578;13.288;2023-05-07T00:19:56;11.20;99.90
30983;DHT22;17660;52.578;13.288;2023-05-07T00:22:22;11.20;99.90
30983;DHT22;17660;52.578;13.288;2023-05-07T00:24:49;11.30;99.90
30983;DHT22;17660;52.578;13.288;2023-05-07T00:27:15;11.20;99.90
30983;DHT22;17660;52.578;13.288;2023-05-07T00:29:42;11.20;99.90
30983;DHT22;17660;52.578;13.288;2023-05-07T00:32:09;11.20;99.90
30983;DHT22;17660;52.578;13.288;2023-05-07T00:34:35;11.30;99.90
30983;DHT22;17660;52.578;13.288;2023-05-07T00:37:02;11.40;99.90
30983;DHT22;17660;52.578;13.288;2023-05-07T00:39:32;11.30;99.90
30983;DHT22;17660;52.578;13.288;2023-05-07T00:41:58;11.20;99.90
30983;DHT22;17660;52.578;13.288;2023-05-07T00:44:25;11.20;99.90
30983;DHT22;17660;52.578;13.288;2023-05-07T00:46:52;11.30;99.90
30983;DHT22;17660;52.578;13.288;2023-05-07T00:49:20;11.30;99.90
30983;DHT22;17660;52.578;13.288;2023-05-07T00:51:46;11.20;99.90
30983;DHT22;17660;52.578;13.288;2023-05-07T00:54:13;11.30;99.90
30983;DHT22;17660;52.578;13.288;2023-05-07T00:56:40;11.20;99.90
30983;DHT22;17660;52.578;13.288;2023-05-07T00:59:06;11.20;99.90
30983;DHT22;17660;52.578;13.288;2023-05-07T01:01:33;11.20;99.90
30983;DHT22;17660;52.578;13.288;2023-05-07T01:04:00;11.20;99.90
30983;DHT22;17660;52.578;13.288;2023-05-07T01:06:27;11.30;99.90
30983;DHT22;17660;52.578;13.288;2023-05-07T01:08:55;11.30;99.90
30983;DHT22;17660;52.578;13.288;2023-05-07T01:11:23;11.20;99.90
30983;DHT22;17660;52.578;13.288;2023-05-07T01:13:51;11.30;99.90
30983;DHT22;17660;52.578;13.288;2023-05-07T01:16:18;11.30;99.90
30983;DHT22;17660;52.578;13.288;2023-05-07T01:18:45;11.30;99.90
30983;DHT22;17660;52.578;13.288;2023-05-07T01:21:14;11.30;99.90
30983;DHT22;17660;52.578;13.288;2023-05-07T01:23:42;11.20;99.90
30983;DHT22;17660;52.578;13.288;2023-05-07T01:26:10;11.20;99.90
30983;DHT22;17660;52.578;13.288;2023-05-07T01:28:37;11.20;99.90
30983;DHT22;17660;52.578;13.288;2023-05-07T01:31:03;11.10;99.90
30983;DHT22;17660;52.578;13.288;2023-05-07T01:33:31;11.10;99.90
30983;DHT22;17660;52.578;13.288;2023-05-07T01:35:59;11.10;99.90
30983;DHT22;17660;52.578;13.288;2023-05-07T01:38:28;11.10;99.90
30983;DHT22;17660;52.578;13.288;2023-05-07T01:40:55;11.20;99.90
30983;DHT22;17660;52.578;13.288;2023-05-07T01:43:22;11.20;99.90
30983;DHT22;17660;52.578;13.288;2023-05-07T01:45:49;11.30;99.90
30983;DHT22;17660;52.578;13.288;2023-05-07T01:48:16;11.10;99.90
30983;DHT22;17660;52.578;13.288;2023-05-07T01:50:44;11.10;99.90
30983;DHT22;17660;52.578;13.288;2023-05-07T01:53:11;11.00;99.90
30983;DHT22;17660;52.578;13.288;2023-05-07T01:55:37;11.00;99.90
30983;DHT22;17660;52.578;13.288;2023-05-07T01:58:04;11.00;99.90
30983;DHT22;17660;52.578;13.288;2023-05-07T02:00:31;11.00;99.90
30983;DHT22;17660;52.578;13.288;2023-05-07T02:02:58;10.80;99.90
30983;DHT22;17660;52.578;13.288;2023-05-07T02:05:25;10.90;99.90
30983;DHT22;17660;52.578;13.288;2023-05-07T02:07:51;11.10;99.90
30983;DHT22;17660;52.578;13.288;2023-05-07T02:10:18;11.00;99.90
30983;DHT22;17660;52.578;13.288;2023-05-07T02:12:44;10.80;99.90
30983;DHT22;17660;52.578;13.288;2023-05-07T02:15:11;10.70;99.90
30983;DHT22;17660;52.578;13.288;2023-05-07T02:17:39;10.90;99.90
30983;DHT22;17660;52.578;13.288;2023-05-07T02:20:06;10.70;99.90
30983;DHT22;17660;52.578;13.288;2023-05-07T02:22:39;10.90;99.90
30983;DHT22;17660;52.578;13.288;2023-05-07T02:25:06;10.90;99.90
30983;DHT22;17660;52.578;13.288;2023-05-07T02:27:32;10.90;99.90
30983;DHT22;17660;52.578;13.288;2023-05-07T02:29:59;10.90;99.90
30983;DHT22;17660;52.578;13.288;2023-05-07T02:32:26;10.80;99.90
30983;DHT22;17660;52.578;13.288;2023-05-07T02:34:53;10.80;99.90
30983;DHT22;17660;52.578;13.288;2023-05-07T02:37:20;10.80;99.90
30983;DHT22;17660;52.578;13.288;2023-05-07T02:39:46;10.80;99.90
30983;DHT22;17660;52.578;13.288;2023-05-07T02:42:13;10.90;99.90
30983;DHT22;17660;52.578;13.288;2023-05-07T02:44:39;10.90;99.90
30983;DHT22;17660;52.578;13.288;2023-05-07T02:47:06;10.70;99.90
30983;DHT22;17660;52.578;13.288;2023-05-07T02:49:34;10.90;99.90
30983;DHT22;17660;52.578;13.288;2023-05-07T02:52:01;10.80;99.90
30983;DHT22;17660;52.578;13.288;2023-05-07T02:54:28;10.80;99.90
30983;DHT22;17660;52.578;13.288;2023-05-07T02:56:54;10.90;99.90
30983;DHT22;17660;52.578;13.288;2023-05-07T02:59:21;10.90;99.90
30983;DHT22;17660;52.578;13.288;2023-05-07T03:01:48;10.90;99.90
30983;DHT22;17660;52.578;13.288;2023-05-07T03:04:15;11.00;99.90
30983;DHT22;17660;52.578;13.288;2023-05-07T03:06:41;11.00;99.90
30983;DHT22;17660;52.578;13.288;2023-05-07T03:09:08;11.10;99.90
30983;DHT22;17660;52.578;13.288;2023-05-07T03:11:35;11.20;99.90
30983;DHT22;17660;52.578;13.288;2023-05-07T03:14:02;11.00;99.90
30983;DHT22;17660;52.578;13.288;2023-05-07T03:16:28;10.90;99.90
30983;DHT22;17660;52.578;13.288;2023-05-07T03:18:55;10.90;99.90
30983;DHT22;17660;52.578;13.288;2023-05-07T03:21:22;10.80;99.90
30983;DHT22;17660;52.578;13.288;2023-05-07T03:23:48;10.90;99.90
30983;DHT22;17660;52.578;13.288;2023-05-07T03:26:15;11.00;99.90
30983;DHT22;17660;52.578;13.288;2023-05-07T03:28:42;11.10;99.90
30983;DHT22;17660;52.578;13.288;2023-05-07T03:31:08;11.10;99.90
30983;DHT22;17660;52.578;13.288;2023-05-07T03:33:35;11.10;99.90
30983;DHT22;17660;52.578;13.288;2023-05-07T03:36:05;11.00;99.90
30983;DHT22;17660;52.578;13.288;2023-05-07T03:38:31;10.80;99.90
30983;DHT22;17660;52.578;13.288;2023-05-07T03:40:58;10.80;99.90
30983;DHT22;17660;52.578;13.288;2023-05-07T03:43:25;10.70;99.90
30983;DHT22;17660;52.578;13.288;2023-05-07T03:45:51;10.70;99.90
30983;DHT22;17660;52.578;13.288;2023-05-07T03:48:18;10.90;99.90
30983;DHT22;17660;52.578;13.288;2023-05-07T03:50:44;10.90;99.90
30983;DHT22;17660;52.578;13.288;2023-05-07T03:53:11;11.10;99.90
30983;DHT22;17660;52.578;13.288;2023-05-07T03:55:38;10.90;99.90
30983;DHT22;17660;52.578;13.288;2023-05-07T03:58:05;11.00;99.90
30983;DHT22;17660;52.578;13.288;2023-05-07T04:00:31;11.10;99.90
30983;DHT22;17660;52.578;13.288;2023-05-07T04:03:04;11.20;99.90
30983;DHT22;17660;52.578;13.288;2023-05-07T04:05:31;11.00;99.90
30983;DHT22;17660;52.578;13.288;2023-05-07T04:07:58;11.00;99.90
30983;DHT22;17660;52.578;13.288;2023-05-07T04:10:25;10.90;99.90
30983;DHT22;17660;52.578;13.288;2023-05-07T04:12:51;10.90;99.90
30983;DHT22;17660;52.578;13.288;2023-05-07T04:15:18;10.80;99.90
30983;DHT22;17660;52.578;13.288;2023-05-07T04:17:45;10.80;99.90
30983;DHT22;17660;52.578;13.288;2023-05-07T04:20:14;10.80;99.90
30983;DHT22;17660;52.578;13.288;2023-05-07T04:22:41;10.90;99.90
30983;DHT22;17660;52.578;13.288;2023-05-07T04:25:08;11.10;99.90
30983;DHT22;17660;52.578;13.288;2023-05-07T04:27:37;11.10;99.90
30983;DHT22;17660;52.578;13.288;2023-05-07T04:30:04;11.10;99.90
30983;DHT22;17660;52.578;13.288;2023-05-07T04:32:31;11.00;99.90
30983;DHT22;17660;52.578;13.288;2023-05-07T04:34:58;11.10;99.90
30983;DHT22;17660;52.578;13.288;2023-05-07T04:37:25;11.20;99.90
30983;DHT22;17660;52.578;13.288;2023-05-07T04:39:52;11.10;99.90
30983;DHT22;17660;52.578;13.288;2023-05-07T04:42:18;10.90;99.90
30983;DHT22;17660;52.578;13.288;2023-05-07T04:44:45;11.00;99.90
30983;DHT22;17660;52.578;13.288;2023-05-07T04:47:12;11.10;99.90
30983;DHT22;17660;52.578;13.288;2023-05-07T04:49:38;11.00;99.90
30983;DHT22;17660;52.578;13.288;2023-05-07T04:52:05;11.20;99.90
30983;DHT22;17660;52.578;13.288;2023-05-07T04:54:31;11.10;99.90
30983;DHT22;17660;52.578;13.288;2023-05-07T04:56:58;11.00;99.90
30983;DHT22;17660;52.578;13.288;2023-05-07T04:59:25;11.00;99.90
30983;DHT22;17660;52.578;13.288;2023-05-07T05:01:51;11.00;99.90
30983;DHT22;17660;52.578;13.288;2023-05-07T05:04:18;11.00;99.90
30983;DHT22;17660;52.578;13.288;2023-05-07T05:06:45;10.90;99.90
30983;DHT22;17660;52.578;13.288;2023-05-07T05:09:11;10.90;99.90
30983;DHT22;17660;52.578;13.288;2023-05-07T05:11:38;10.90;99.90
30983;DHT22;17660;52.578;13.288;2023-05-07T05:14:05;10.90;99.90
30983;DHT22;17660;52.578;13.288;2023-05-07T05:16:31;10.90;99.90
30983;DHT22;17660;52.578;13.288;2023-05-07T05:18:59;11.00;99.90
30983;DHT22;17660;52.578;13.288;2023-05-07T05:21:25;10.90;99.90
30983;DHT22;17660;52.578;13.288;2023-05-07T05:23:52;11.10;99.90
30983;DHT22;17660;52.578;13.288;2023-05-07T05:26:19;11.20;99.90
30983;DHT22;17660;52.578;13.288;2023-05-07T05:28:47;11.30;99.90
30983;DHT22;17660;52.578;13.288;2023-05-07T05:31:14;11.30;99.90
30983;DHT22;17660;52.578;13.288;2023-05-07T05:33:40;11.40;99.90
30983;DHT22;17660;52.578;13.288;2023-05-07T05:36:09;11.40;99.90
30983;DHT22;17660;52.578;13.288;2023-05-07T05:38:36;11.50;99.90
30983;DHT22;17660;52.578;13.288;2023-05-07T05:41:02;11.50;99.90
30983;DHT22;17660;52.578;13.288;2023-05-07T05:43:29;11.60;99.90
30983;DHT22;17660;52.578;13.288;2023-05-07T05:45:56;11.30;99.90
30983;DHT22;17660;52.578;13.288;2023-05-07T05:48:24;11.50;99.90
30983;DHT22;17660;52.578;13.288;2023-05-07T05:50:50;11.60;99.90
30983;DHT22;17660;52.578;13.288;2023-05-07T05:53:17;11.70;99.90
30983;DHT22;17660;52.578;13.288;2023-05-07T05:55:44;11.70;99.90
30983;DHT22;17660;52.578;13.288;2023-05-07T05:58:10;11.80;99.90
30983;DHT22;17660;52.578;13.288;2023-05-07T06:00:37;11.60;99.90
30983;DHT22;17660;52.578;13.288;2023-05-07T06:03:04;11.50;99.90
30983;DHT22;17660;52.578;13.288;2023-05-07T06:05:30;11.60;99.90
30983;DHT22;17660;52.578;13.288;2023-05-07T06:07:57;11.90;99.90
30983;DHT22;17660;52.578;13.288;2023-05-07T06:10:24;12.00;99.90
30983;DHT22;17660;52.578;13.288;2023-05-07T06:12:50;12.10;99.70
30983;DHT22;17660;52.578;13.288;2023-05-07T06:15:17;12.30;99.80
30983;DHT22;17660;52.578;13.288;2023-05-07T06:17:44;12.20;99.70
30983;DHT22;17660;52.578;13.288;2023-05-07T06:20:10;12.30;99.40
30983;DHT22;17660;52.578;13.288;2023-05-07T06:22:38;12.50;99.30
30983;DHT22;17660;52.578;13.288;2023-05-07T06:25:04;12.50;98.70
30983;DHT22;17660;52.578;13.288;2023-05-07T06:27:31;12.60;99.00
30983;DHT22;17660;52.578;13.288;2023-05-07T06:29:58;12.70;98.60
30983;DHT22;17660;52.578;13.288;2023-05-07T06:32:25;12.70;98.80
30983;DHT22;17660;52.578;13.288;2023-05-07T06:34:51;12.70;98.90
30983;DHT22;17660;52.578;13.288;2023-05-07T06:37:18;12.60;98.90
30983;DHT22;17660;52.578;13.288;2023-05-07T06:39:45;12.60;99.10
30983;DHT22;17660;52.578;13.288;2023-05-07T06:42:11;12.60;99.00
30983;DHT22;17660;52.578;13.288;2023-05-07T06:44:38;12.80;98.90
30983;DHT22;17660;52.578;13.288;2023-05-07T06:47:04;13.10;98.60
30983;DHT22;17660;52.578;13.288;2023-05-07T06:49:31;13.10;98.10
30983;DHT22;17660;52.578;13.288;2023-05-07T06:51:58;13.00;98.00
30983;DHT22;17660;52.578;13.288;2023-05-07T06:54:25;12.80;98.20
30983;DHT22;17660;52.578;13.288;2023-05-07T06:56:52;12.90;98.40
30983;DHT22;17660;52.578;13.288;2023-05-07T06:59:18;12.90;97.90
30983;DHT22;17660;52.578;13.288;2023-05-07T07:01:45;12.90;98.50
30983;DHT22;17660;52.578;13.288;2023-05-07T07:04:12;12.70;98.60
30983;DHT22;17660;52.578;13.288;2023-05-07T07:06:39;12.80;98.50
30983;DHT22;17660;52.578;13.288;2023-05-07T07:09:05;13.00;98.60
30983;DHT22;17660;52.578;13.288;2023-05-07T07:11:32;13.30;98.30
30983;DHT22;17660;52.578;13.288;2023-05-07T07:13:59;13.50;97.60
30983;DHT22;17660;52.578;13.288;2023-05-07T07:16:25;13.70;97.10
30983;DHT22;17660;52.578;13.288;2023-05-07T07:18:52;13.70;96.80
30983;DHT22;17660;52.578;13.288;2023-05-07T07:21:19;13.70;97.00
30983;DHT22;17660;52.578;13.288;2023-05-07T07:23:46;13.60;96.80
30983;DHT22;17660;52.578;13.288;2023-05-07T07:26:12;13.30;97.20
30983;DHT22;17660;52.578;13.288;2023-05-07T07:28:45;13.50;97.70
30983;DHT22;17660;52.578;13.288;2023-05-07T07:31:12;13.90;97.20
30983;DHT22;17660;52.578;13.288;2023-05-07T07:33:39;14.40;96.80
30983;DHT22;17660;52.578;13.288;2023-05-07T07:36:06;14.60;95.00
30983;DHT22;17660;52.578;13.288;2023-05-07T07:38:33;14.60;95.60
30983;DHT22;17660;52.578;13.288;2023-05-07T07:41:00;14.50;95.90
30983;DHT22;17660;52.578;13.288;2023-05-07T07:43:27;14.60;95.30
30983;DHT22;17660;52.578;13.288;2023-05-07T07:45:54;14.30;95.60
30983;DHT22;17660;52.578;13.288;2023-05-07T07:48:21;14.70;95.20
30983;DHT22;17660;52.578;13.288;2023-05-07T07:50:50;15.10;94.20
30983;DHT22;17660;52.578;13.288;2023-05-07T07:53:17;15.40;94.20
30983;DHT22;17660;52.578;13.288;2023-05-07T07:55:44;15.20;93.40
30983;DHT22;17660;52.578;13.288;2023-05-07T07:58:11;15.10;94.90
30983;DHT22;17660;52.578;13.288;2023-05-07T08:00:38;15.10;94.40
30983;DHT22;17660;52.578;13.288;2023-05-07T08:03:04;15.20;94.60
30983;DHT22;17660;52.578;13.288;2023-05-07T08:05:31;15.20;94.70
30983;DHT22;17660;52.578;13.288;2023-05-07T08:07:58;15.00;93.80
30983;DHT22;17660;52.578;13.288;2023-05-07T08:10:25;15.30;93.00
30983;DHT22;17660;52.578;13.288;2023-05-07T08:12:51;15.30;93.30
30983;DHT22;17660;52.578;13.288;2023-05-07T08:15:18;15.40;92.90
30983;DHT22;17660;52.578;13.288;2023-05-07T08:17:45;15.50;93.60
30983;DHT22;17660;52.578;13.288;2023-05-07T08:20:11;15.50;92.90
30983;DHT22;17660;52.578;13.288;2023-05-07T08:22:38;15.20;93.10
30983;DHT22;17660;52.578;13.288;2023-05-07T08:25:06;15.20;93.70
30983;DHT22;17660;52.578;13.288;2023-05-07T08:27:33;15.50;92.60
30983;DHT22;17660;52.578;13.288;2023-05-07T08:30:00;15.20;92.20
30983;DHT22;17660;52.578;13.288;2023-05-07T08:32:26;15.20;92.30
30983;DHT22;17660;52.578;13.288;2023-05-07T08:34:54;15.50;92.80
30983;DHT22;17660;52.578;13.288;2023-05-07T08:37:21;15.40;92.30
30983;DHT22;17660;52.578;13.288;2023-05-07T08:39:47;15.80;92.10
30983;DHT22;17660;52.578;13.288;2023-05-07T08:42:15;16.10;92.10
30983;DHT22;17660;52.578;13.288;2023-05-07T08:44:42;16.10;91.40
30983;DHT22;17660;52.578;13.288;2023-05-07T08:47:10;16.10;91.20
30983;DHT22;17660;52.578;13.288;2023-05-07T08:49:36;16.30;90.70
30983;DHT22;17660;52.578;13.288;2023-05-07T08:52:03;16.50;91.00
30983;DHT22;17660;52.578;13.288;2023-05-07T08:54:29;16.40;90.90
30983;DHT22;17660;52.578;13.288;2023-05-07T08:56:57;16.00;91.20
30983;DHT22;17660;52.578;13.288;2023-05-07T08:59:23;15.70;91.40
30983;DHT22;17660;52.578;13.288;2023-05-07T09:01:50;16.20;91.70
30983;DHT22;17660;52.578;13.288;2023-05-07T09:04:17;16.60;90.70
30983;DHT22;17660;52.578;13.288;2023-05-07T09:06:43;16.80;90.60
30983;DHT22;17660;52.578;13.288;2023-05-07T09:09:10;17.10;90.30
30983;DHT22;17660;52.578;13.288;2023-05-07T09:11:40;17.10;89.50
30983;DHT22;17660;52.578;13.288;2023-05-07T09:14:07;17.40;89.50
30983;DHT22;17660;52.578;13.288;2023-05-07T09:16:35;17.60;90.40
30983;DHT22;17660;52.578;13.288;2023-05-07T09:19:02;17.30;88.20
30983;DHT22;17660;52.578;13.288;2023-05-07T09:21:28;17.30;88.00
30983;DHT22;17660;52.578;13.288;2023-05-07T09:23:56;17.40;88.60
30983;DHT22;17660;52.578;13.288;2023-05-07T09:26:23;17.70;88.70
30983;DHT22;17660;52.578;13.288;2023-05-07T09:28:50;17.40;89.20
30983;DHT22;17660;52.578;13.288;2023-05-07T09:31:17;17.00;89.20
30983;DHT22;17660;52.578;13.288;2023-05-07T09:33:47;17.00;89.00
30983;DHT22;17660;52.578;13.288;2023-05-07T09:36:13;17.20;89.60
30983;DHT22;17660;52.578;13.288;2023-05-07T09:38:40;17.00;90.10
30983;DHT22;17660;52.578;13.288;2023-05-07T09:41:11;17.20;89.10
30983;DHT22;17660;52.578;13.288;2023-05-07T09:43:38;17.50;87.40
30983;DHT22;17660;52.578;13.288;2023-05-07T09:46:11;16.90;87.20
30983;DHT22;17660;52.578;13.288;2023-05-07T09:48:39;16.90;88.60
30983;DHT22;17660;52.578;13.288;2023-05-07T09:51:09;17.60;89.90
30983;DHT22;17660;52.578;13.288;2023-05-07T09:53:37;17.90;84.30
30983;DHT22;17660;52.578;13.288;2023-05-07T09:56:05;17.30;84.50
30983;DHT22;17660;52.578;13.288;2023-05-07T09:58:32;18.30;84.90
30983;DHT22;17660;52.578;13.288;2023-05-07T10:00:59;19.60;82.40
30983;DHT22;17660;52.578;13.288;2023-05-07T10:03:27;19.30;79.20
30983;DHT22;17660;52.578;13.288;2023-05-07T10:05:55;18.80;83.60
30983;DHT22;17660;52.578;13.288;2023-05-07T10:08:22;18.70;82.60
30983;DHT22;17660;52.578;13.288;2023-05-07T10:10:49;18.50;82.20
30983;DHT22;17660;52.578;13.288;2023-05-07T10:13:16;18.70;81.80
30983;DHT22;17660;52.578;13.288;2023-05-07T10:15:43;19.00;80.30
30983;DHT22;17660;52.578;13.288;2023-05-07T10:18:10;19.60;80.40
30983;DHT22;17660;52.578;13.288;2023-05-07T10:20:38;20.10;79.30
30983;DHT22;17660;52.578;13.288;2023-05-07T10:23:05;20.60;78.20
30983;DHT22;17660;52.578;13.288;2023-05-07T10:25:33;20.30;77.30
30983;DHT22;17660;52.578;13.288;2023-05-07T10:28:01;19.80;77.30
30983;DHT22;17660;52.578;13.288;2023-05-07T10:32:59;18.20;80.50
30983;DHT22;17660;52.578;13.288;2023-05-07T10:35:37;18.30;80.80
30983;DHT22;17660;52.578;13.288;2023-05-07T10:38:04;18.20;80.60
30983;DHT22;17660;52.578;13.288;2023-05-07T10:40:31;18.10;82.00
30983;DHT22;17660;52.578;13.288;2023-05-07T10:42:58;18.00;80.50
30983;DHT22;17660;52.578;13.288;2023-05-07T10:45:27;18.30;80.20
30983;DHT22;17660;52.578;13.288;2023-05-07T10:50:42;18.00;79.60
30983;DHT22;17660;52.578;13.288;2023-05-07T10:55:46;17.90;80.90
30983;DHT22;17660;52.578;13.288;2023-05-07T11:00:58;17.80;80.70
30983;DHT22;17660;52.578;13.288;2023-05-07T11:03:25;18.00;81.90
30983;DHT22;17660;52.578;13.288;2023-05-07T11:11:19;18.20;79.30
30983;DHT22;17660;52.578;13.288;2023-05-07T11:13:46;18.40;80.30
30983;DHT22;17660;52.578;13.288;2023-05-07T11:16:17;18.90;80.30
30983;DHT22;17660;52.578;13.288;2023-05-07T11:18:48;19.10;78.40
30983;DHT22;17660;52.578;13.288;2023-05-07T11:21:31;19.00;78.80
30983;DHT22;17660;52.578;13.288;2023-05-07T11:23:58;19.50;76.80
30983;DHT22;17660;52.578;13.288;2023-05-07T11:26:25;19.60;75.30
30983;DHT22;17660;52.578;13.288;2023-05-07T11:28:52;18.80;75.90
30983;DHT22;17660;52.578;13.288;2023-05-07T11:31:20;19.10;78.50
30983;DHT22;17660;52.578;13.288;2023-05-07T11:33:47;19.40;77.20
30983;DHT22;17660;52.578;13.288;2023-05-07T11:36:14;20.40;74.30
30983;DHT22;17660;52.578;13.288;2023-05-07T11:38:41;20.60;72.30
30983;DHT22;17660;52.578;13.288;2023-05-07T11:41:08;20.90;74.80
30983;DHT22;17660;52.578;13.288;2023-05-07T11:43:35;21.20;72.80
30983;DHT22;17660;52.578;13.288;2023-05-07T11:46:08;20.90;72.50
30983;DHT22;17660;52.578;13.288;2023-05-07T11:48:35;20.80;74.40
30983;DHT22;17660;52.578;13.288;2023-05-07T11:51:06;20.90;71.80
30983;DHT22;17660;52.578;13.288;2023-05-07T11:53:35;21.10;71.00
30983;DHT22;17660;52.578;13.288;2023-05-07T11:56:06;21.50;70.90
30983;DHT22;17660;52.578;13.288;2023-05-07T11:58:33;21.80;70.00
30983;DHT22;17660;52.578;13.288;2023-05-07T12:00:59;21.70;71.00
30983;DHT22;17660;52.578;13.288;2023-05-07T12:03:26;21.40;69.50
30983;DHT22;17660;52.578;13.288;2023-05-07T12:05:57;21.80;69.40
30983;DHT22;17660;52.578;13.288;2023-05-07T12:08:23;21.90;68.30
30983;DHT22;17660;52.578;13.288;2023-05-07T12:10:50;21.40;68.70
30983;DHT22;17660;52.578;13.288;2023-05-07T12:13:18;20.80;70.30
30983;DHT22;17660;52.578;13.288;2023-05-07T12:15:45;20.70;68.80
30983;DHT22;17660;52.578;13.288;2023-05-07T12:18:12;20.90;69.90
30983;DHT22;17660;52.578;13.288;2023-05-07T12:20:39;20.70;69.80
30983;DHT22;17660;52.578;13.288;2023-05-07T12:23:06;20.40;71.80
30983;DHT22;17660;52.578;13.288;2023-05-07T12:25:38;20.80;69.60
30983;DHT22;17660;52.578;13.288;2023-05-07T12:28:05;21.10;72.40
30983;DHT22;17660;52.578;13.288;2023-05-07T12:30:36;21.40;70.40
30983;DHT22;17660;52.578;13.288;2023-05-07T12:33:03;21.50;68.50
30983;DHT22;17660;52.578;13.288;2023-05-07T12:35:30;21.70;71.70
30983;DHT22;17660;52.578;13.288;2023-05-07T12:37:57;22.20;68.90
30983;DHT22;17660;52.578;13.288;2023-05-07T12:40:39;22.30;68.50
30983;DHT22;17660;52.578;13.288;2023-05-07T12:43:06;22.40;68.80
30983;DHT22;17660;52.578;13.288;2023-05-07T12:45:39;22.50;67.20
30983;DHT22;17660;52.578;13.288;2023-05-07T12:48:09;21.30;65.40
30983;DHT22;17660;52.578;13.288;2023-05-07T12:50:36;20.80;68.50
30983;DHT22;17660;52.578;13.288;2023-05-07T12:53:06;21.10;70.10
30983;DHT22;17660;52.578;13.288;2023-05-07T12:55:50;21.60;68.10
30983;DHT22;17660;52.578;13.288;2023-05-07T12:58:20;21.60;68.20
30983;DHT22;17660;52.578;13.288;2023-05-07T13:00:48;21.30;69.50
30983;DHT22;17660;52.578;13.288;2023-05-07T13:03:48;21.20;67.10
30983;DHT22;17660;52.578;13.288;2023-05-07T13:06:08;20.90;66.40
30983;DHT22;17660;52.578;13.288;2023-05-07T13:08:41;21.00;66.80
30983;DHT22;17660;52.578;13.288;2023-05-07T13:11:11;20.60;69.80
30983;DHT22;17660;52.578;13.288;2023-05-07T13:13:38;20.50;67.50
30983;DHT22;17660;52.578;13.288;2023-05-07T13:16:07;20.80;69.30
30983;DHT22;17660;52.578;13.288;2023-05-07T13:18:34;21.20;68.80
30983;DHT22;17660;52.578;13.288;2023-05-07T13:21:01;21.30;68.40
30983;DHT22;17660;52.578;13.288;2023-05-07T13:23:28;21.30;65.50
30983;DHT22;17660;52.578;13.288;2023-05-07T13:25:55;20.70;66.30
30983;DHT22;17660;52.578;13.288;2023-05-07T13:28:25;21.00;68.30
30983;DHT22;17660;52.578;13.288;2023-05-07T13:30:52;20.80;66.60
30983;DHT22;17660;52.578;13.288;2023-05-07T13:33:20;21.00;68.80
30983;DHT22;17660;52.578;13.288;2023-05-07T13:35:47;20.80;66.50
30983;DHT22;17660;52.578;13.288;2023-05-07T13:38:14;20.20;67.50
30983;DHT22;17660;52.578;13.288;2023-05-07T13:40:42;20.40;68.10
30983;DHT22;17660;52.578;13.288;2023-05-07T13:43:08;19.80;67.20
30983;DHT22;17660;52.578;13.288;2023-05-07T13:45:35;19.40;68.80
30983;DHT22;17660;52.578;13.288;2023-05-07T13:48:02;19.70;69.90
30983;DHT22;17660;52.578;13.288;2023-05-07T13:50:29;19.80;70.00
30983;DHT22;17660;52.578;13.288;2023-05-07T13:52:56;19.90;66.00
30983;DHT22;17660;52.578;13.288;2023-05-07T13:55:23;19.90;67.50
30983;DHT22;17660;52.578;13.288;2023-05-07T13:57:54;19.90;66.70
30983;DHT22;17660;52.578;13.288;2023-05-07T14:00:21;20.30;67.60
30983;DHT22;17660;52.578;13.288;2023-05-07T14:02:48;20.40;67.00
30983;DHT22;17660;52.578;13.288;2023-05-07T14:05:15;19.90;66.10
30983;DHT22;17660;52.578;13.288;2023-05-07T14:07:42;20.20;69.00
30983;DHT22;17660;52.578;13.288;2023-05-07T14:10:08;20.40;67.40
30983;DHT22;17660;52.578;13.288;2023-05-07T14:12:36;20.60;67.90
30983;DHT22;17660;52.578;13.288;2023-05-07T14:15:03;20.50;67.60
30983;DHT22;17660;52.578;13.288;2023-05-07T14:17:30;20.40;67.40
30983;DHT22;17660;52.578;13.288;2023-05-07T14:19:56;20.30;68.00
30983;DHT22;17660;52.578;13.288;2023-05-07T14:22:23;20.50;67.60
30983;DHT22;17660;52.578;13.288;2023-05-07T14:24:50;20.30;65.30
30983;DHT22;17660;52.578;13.288;2023-05-07T14:27:31;20.60;69.80
30983;DHT22;17660;52.578;13.288;2023-05-07T14:29:58;20.50;67.60
30983;DHT22;17660;52.578;13.288;2023-05-07T14:32:24;20.00;66.20
30983;DHT22;17660;52.578;13.288;2023-05-07T14:34:51;19.80;67.50
30983;DHT22;17660;52.578;13.288;2023-05-07T14:37:18;19.70;67.10
30983;DHT22;17660;52.578;13.288;2023-05-07T14:39:46;20.50;67.70
30983;DHT22;17660;52.578;13.288;2023-05-07T14:42:16;22.20;67.10
30983;DHT22;17660;52.578;13.288;2023-05-07T14:44:43;23.30;63.60
30983;DHT22;17660;52.578;13.288;2023-05-07T14:47:11;23.00;63.50
30983;DHT22;17660;52.578;13.288;2023-05-07T14:49:38;22.80;63.30
30983;DHT22;17660;52.578;13.288;2023-05-07T14:52:05;22.70;63.60
30983;DHT22;17660;52.578;13.288;2023-05-07T14:54:36;22.70;63.50
30983;DHT22;17660;52.578;13.288;2023-05-07T14:57:04;23.80;62.60
30983;DHT22;17660;52.578;13.288;2023-05-07T14:59:31;23.00;61.90
30983;DHT22;17660;52.578;13.288;2023-05-07T15:01:58;22.50;63.00
30983;DHT22;17660;52.578;13.288;2023-05-07T15:04:24;22.90;63.70
30983;DHT22;17660;52.578;13.288;2023-05-07T15:06:51;22.90;61.70
30983;DHT22;17660;52.578;13.288;2023-05-07T15:09:20;22.10;63.00
30983;DHT22;17660;52.578;13.288;2023-05-07T15:11:46;21.30;64.40
30983;DHT22;17660;52.578;13.288;2023-05-07T15:14:13;20.60;65.90
30983;DHT22;17660;52.578;13.288;2023-05-07T15:16:39;20.20;66.20
30983;DHT22;17660;52.578;13.288;2023-05-07T15:19:06;19.90;67.20
30983;DHT22;17660;52.578;13.288;2023-05-07T15:21:33;19.60;68.30
30983;DHT22;17660;52.578;13.288;2023-05-07T15:24:01;19.60;68.10
30983;DHT22;17660;52.578;13.288;2023-05-07T15:26:28;19.50;68.60
30983;DHT22;17660;52.578;13.288;2023-05-07T15:28:55;19.40;68.40
30983;DHT22;17660;52.578;13.288;2023-05-07T15:31:24;19.30;68.60